createdAt,value
2022-10-29T00:00:57.167Z,5.78
2022-10-29T00:03:47.357Z,4.28
2022-10-29T00:06:35.809Z,4.65
2022-10-29T00:09:24.245Z,4.82
2022-10-29T00:12:13.924Z,4.70
2022-10-29T00:15:02.269Z,4.72
2022-10-29T00:17:50.560Z,4.80
2022-10-29T00:20:38.892Z,4.75
2022-10-29T00:23:27.269Z,4.57
2022-10-29T00:26:16.168Z,4.40
2022-10-29T00:29:05.844Z,5.10
2022-10-29T00:31:54.225Z,5.18
2022-10-29T00:34:42.543Z,4.63
2022-10-29T00:37:30.870Z,6.18
2022-10-29T00:40:20.183Z,5.55
2022-10-29T00:43:15.322Z,5.10
2022-10-29T00:46:09.947Z,5.40
2022-10-29T00:48:59.937Z,4.97
2022-10-29T00:51:48.829Z,5.60
2022-10-29T00:54:41.854Z,5.85
2022-10-29T00:57:38.007Z,6.57
2022-10-29T01:00:26.360Z,5.35
2022-10-29T01:03:16.116Z,5.95
2022-10-29T01:06:05.194Z,5.43
2022-10-29T01:08:53.902Z,5.20
2022-10-29T01:11:55.350Z,5.10
2022-10-29T01:14:53.695Z,5.30
2022-10-29T01:17:53.825Z,5.45
2022-10-29T01:21:17.750Z,5.18
2022-10-29T01:24:45.671Z,4.95
2022-10-29T01:27:52.823Z,5.20
2022-10-29T01:31:21.172Z,5.68
2022-10-29T01:34:16.102Z,5.22
2022-10-29T01:37:14.848Z,5.43
2022-10-29T01:40:08.099Z,5.43
2022-10-29T01:43:05.669Z,5.22
2022-10-29T01:45:59.456Z,5.55
2022-10-29T01:48:51.264Z,5.65
2022-10-29T01:51:41.796Z,5.53
2022-10-29T01:54:30.131Z,5.95
2022-10-29T01:57:30.350Z,5.50
2022-10-29T02:00:20.944Z,5.45
2022-10-29T02:03:25.460Z,5.82
2022-10-29T02:06:21.418Z,5.35
2022-10-29T02:09:17.193Z,5.43
2022-10-29T02:12:19.313Z,5.55
2022-10-29T02:15:12.293Z,5.10
2022-10-29T02:18:01.622Z,5.72
2022-10-29T02:20:49.986Z,5.57
2022-10-29T02:23:38.343Z,5.60
2022-10-29T02:26:28.013Z,4.80
2022-10-29T02:29:16.303Z,5.57
2022-10-29T02:32:04.729Z,4.93
2022-10-29T02:34:53.028Z,5.63
2022-10-29T02:37:41.355Z,5.65
2022-10-29T02:40:29.680Z,5.57
2022-10-29T02:46:17.111Z,5.75
2022-10-29T02:49:05.447Z,5.32
2022-10-29T02:51:53.972Z,5.95
2022-10-29T02:54:42.989Z,5.30
2022-10-29T02:57:31.321Z,5.22
2022-10-29T03:00:21.269Z,5.60
2022-10-29T03:03:09.564Z,5.70
2022-10-29T03:05:57.936Z,5.90
2022-10-29T03:08:46.565Z,5.43
2022-10-29T03:11:34.895Z,6.95
2022-10-29T03:14:23.220Z,6.00
2022-10-29T03:17:12.907Z,6.70
2022-10-29T03:20:01.192Z,5.80
2022-10-29T03:22:49.593Z,6.55
2022-10-29T03:25:37.947Z,6.80
2022-10-29T03:28:28.119Z,7.07
2022-10-29T03:31:16.450Z,6.38
2022-10-29T03:34:06.103Z,6.68
2022-10-29T03:36:54.436Z,6.20
2022-10-29T03:39:42.824Z,5.85
2022-10-29T03:42:31.878Z,6.47
2022-10-29T03:45:20.232Z,6.72
2022-10-29T03:48:08.670Z,6.82
2022-10-29T03:51:00.183Z,6.70
2022-10-29T03:53:48.495Z,7.35
2022-10-29T03:56:36.842Z,7.03
2022-10-29T03:59:25.168Z,6.82
2022-10-29T04:02:13.828Z,8.10
2022-10-29T04:05:02.256Z,7.00
2022-10-29T04:07:51.930Z,7.45
2022-10-29T04:10:44.375Z,7.00
2022-10-29T04:13:33.068Z,7.25
2022-10-29T04:16:21.405Z,5.75
2022-10-29T04:19:09.752Z,7.40
2022-10-29T04:24:32.555Z,7.05
2022-10-29T04:28:42.697Z,6.55
2022-10-29T04:31:25.786Z,7.45
2022-10-29T04:34:14.135Z,6.53
2022-10-29T04:37:02.485Z,6.53
2022-10-29T04:39:50.934Z,6.95
2022-10-29T04:42:41.131Z,7.75
2022-10-29T04:45:29.523Z,7.85
2022-10-29T04:48:17.904Z,6.88
2022-10-29T04:51:06.593Z,7.07
2022-10-29T04:53:54.990Z,7.43
2022-10-29T04:56:43.521Z,6.47
2022-10-29T04:59:33.202Z,7.47
2022-10-29T05:02:21.491Z,7.38
2022-10-29T05:05:10.344Z,7.82
2022-10-29T05:08:00.009Z,7.28
2022-10-29T05:10:48.333Z,7.53
2022-10-29T05:13:36.822Z,7.43
2022-10-29T05:16:26.471Z,7.20
2022-10-29T05:19:14.783Z,6.80
2022-10-29T05:22:03.121Z,8.10
2022-10-29T05:24:51.425Z,8.15
2022-10-29T05:27:39.773Z,8.23
2022-10-29T05:30:28.095Z,8.43
2022-10-29T05:33:19.728Z,7.97
2022-10-29T05:36:08.502Z,8.32
2022-10-29T05:38:56.852Z,7.68
2022-10-29T05:41:45.187Z,7.78
2022-10-29T05:44:33.518Z,8.15
2022-10-29T05:47:21.818Z,8.70
2022-10-29T05:50:12.841Z,10.63
2022-10-29T05:53:02.786Z,11.75
2022-10-29T05:55:51.107Z,12.15
2022-10-29T05:58:39.442Z,10.63
2022-10-29T06:01:27.786Z,9.43
2022-10-29T06:04:17.341Z,9.90
2022-10-29T06:07:07.258Z,9.27
2022-10-29T06:09:55.608Z,8.98
2022-10-29T06:12:43.923Z,9.05
2022-10-29T06:15:32.258Z,8.15
2022-10-29T06:18:20.564Z,8.88
2022-10-29T06:21:08.896Z,8.10
2022-10-29T06:23:58.563Z,8.02
2022-10-29T06:26:46.973Z,7.90
2022-10-29T06:29:35.276Z,9.05
2022-10-29T06:32:23.748Z,8.75
2022-10-29T06:35:12.023Z,8.88
2022-10-29T06:38:01.320Z,8.77
2022-10-29T06:40:54.651Z,7.70
2022-10-29T06:43:42.940Z,8.40
2022-10-29T06:46:31.478Z,9.65
2022-10-29T06:49:19.955Z,9.52
2022-10-29T06:52:08.287Z,10.23
2022-10-29T06:54:56.598Z,10.10
2022-10-29T06:57:46.270Z,9.88
2022-10-29T07:00:36.080Z,9.57
2022-10-29T07:03:24.502Z,9.40
2022-10-29T07:06:12.838Z,10.07
2022-10-29T07:09:01.205Z,9.63
2022-10-29T07:11:49.502Z,11.15
2022-10-29T07:14:39.215Z,9.55
2022-10-29T07:17:27.550Z,10.40
2022-10-29T07:20:16.031Z,10.45
2022-10-29T07:23:04.385Z,11.73
2022-10-29T07:25:54.394Z,10.95
2022-10-29T07:28:42.658Z,10.63
2022-10-29T07:31:33.025Z,11.30
2022-10-29T07:34:21.295Z,10.77
2022-10-29T07:37:09.609Z,11.07
2022-10-29T07:39:57.916Z,10.85
2022-10-29T07:42:46.244Z,11.05
2022-10-29T07:45:35.078Z,10.43
2022-10-29T07:48:24.940Z,11.13
2022-10-29T07:51:13.276Z,11.40
2022-10-29T07:54:01.595Z,9.88
2022-10-29T07:56:52.138Z,11.02
2022-10-29T07:59:40.472Z,12.38
2022-10-29T08:02:28.810Z,9.90
2022-10-29T08:05:18.471Z,10.27
2022-10-29T08:08:08.026Z,10.27
2022-10-29T08:11:00.937Z,10.27
2022-10-29T08:13:50.185Z,9.18
2022-10-29T08:16:38.487Z,8.15
2022-10-29T08:19:26.814Z,9.10
2022-10-29T08:22:18.989Z,9.07
2022-10-29T08:25:08.022Z,8.55
2022-10-29T08:28:00.699Z,9.00
2022-10-29T08:30:51.137Z,8.68
2022-10-29T08:33:39.490Z,9.52
2022-10-29T08:36:27.793Z,8.82
2022-10-29T08:39:17.513Z,8.35
2022-10-29T08:42:24.432Z,7.70
2022-10-29T08:45:25.000Z,8.10
2022-10-29T08:48:24.018Z,8.32
2022-10-29T08:51:18.033Z,8.93
2022-10-29T08:57:18.791Z,9.95
2022-10-29T09:00:09.584Z,8.07
2022-10-29T09:05:58.716Z,7.60
2022-10-29T09:09:10.089Z,7.18
2022-10-29T09:12:42.417Z,7.13
2022-10-29T09:15:46.315Z,7.10
2022-10-29T09:18:48.017Z,7.15
2022-10-29T09:21:45.321Z,7.32
2022-10-29T09:24:41.384Z,7.70
2022-10-29T09:27:42.162Z,7.18
2022-10-29T09:30:32.304Z,7.05
2022-10-29T09:33:24.613Z,7.30
2022-10-29T09:36:16.599Z,7.03
2022-10-29T09:39:11.208Z,6.90
2022-10-29T09:42:00.782Z,7.28
2022-10-29T09:44:53.868Z,7.00
2022-10-29T09:47:49.754Z,7.20
2022-10-29T09:50:50.215Z,7.47
2022-10-29T09:53:38.585Z,7.53
2022-10-29T09:56:27.168Z,6.93
2022-10-29T09:59:26.031Z,7.30
2022-10-29T10:02:26.798Z,6.85
2022-10-29T10:08:11.578Z,7.55
2022-10-29T10:11:01.728Z,7.03
2022-10-29T10:13:54.837Z,7.30
2022-10-29T10:16:44.074Z,8.05
2022-10-29T10:19:33.833Z,8.27
2022-10-29T10:22:24.304Z,8.10
2022-10-29T10:25:33.689Z,6.45
2022-10-29T10:28:23.575Z,6.15
2022-10-29T10:31:16.731Z,8.57
2022-10-29T10:34:14.929Z,8.27
2022-10-29T10:37:05.159Z,9.00
2022-10-29T10:39:59.516Z,8.18
2022-10-29T10:42:49.376Z,8.55
2022-10-29T10:45:40.176Z,8.83
2022-10-29T10:48:33.530Z,8.63
2022-10-29T10:51:27.102Z,8.10
2022-10-29T10:54:28.986Z,7.60
2022-10-29T10:57:23.275Z,7.78
2022-10-29T11:00:19.647Z,7.80
2022-10-29T11:03:16.351Z,8.30
2022-10-29T11:06:08.625Z,8.13
2022-10-29T11:09:01.361Z,7.97
2022-10-29T11:11:59.026Z,8.48
2022-10-29T11:14:52.310Z,8.15
2022-10-29T11:17:52.989Z,8.20
2022-10-29T11:20:48.194Z,8.15
2022-10-29T11:23:45.726Z,8.57
2022-10-29T11:26:38.650Z,8.18
2022-10-29T11:29:39.076Z,7.75
2022-10-29T11:32:35.997Z,7.55
2022-10-29T11:35:40.764Z,7.30
2022-10-29T11:38:35.501Z,6.78
2022-10-29T11:41:28.985Z,7.90
2022-10-29T11:44:20.745Z,6.78
2022-10-29T11:47:31.382Z,7.70
2022-10-29T11:50:31.178Z,7.00
2022-10-29T11:53:30.311Z,7.37
2022-10-29T11:56:30.271Z,8.07
2022-10-29T11:59:28.911Z,7.70
2022-10-29T12:02:31.776Z,7.82
2022-10-29T12:05:27.689Z,6.82
2022-10-29T12:08:27.928Z,7.97
2022-10-29T12:11:24.220Z,8.73
2022-10-29T12:14:26.287Z,7.82
2022-10-29T12:17:19.517Z,7.75
2022-10-29T12:20:14.516Z,9.75
2022-10-29T12:23:14.572Z,7.68
2022-10-29T12:29:08.546Z,9.02
2022-10-29T12:32:04.143Z,8.52
2022-10-29T12:35:02.773Z,8.82
2022-10-29T12:38:06.441Z,8.30
2022-10-29T12:41:00.549Z,8.52
2022-10-29T12:43:52.999Z,9.27
2022-10-29T12:46:45.246Z,8.95
2022-10-29T12:49:45.251Z,10.00
2022-10-29T12:52:39.475Z,8.95
2022-10-29T12:55:28.934Z,8.65
2022-10-29T12:58:50.533Z,8.85
2022-10-29T13:05:14.868Z,9.00
2022-10-29T13:08:35.404Z,8.57
2022-10-29T13:11:43.125Z,9.25
2022-10-29T13:14:39.693Z,7.97
2022-10-29T13:17:32.231Z,8.20
2022-10-29T13:20:25.208Z,6.90
2022-10-29T13:23:35.969Z,7.63
2022-10-29T13:26:55.019Z,7.10
2022-10-29T13:29:47.596Z,8.15
2022-10-29T13:32:37.916Z,7.15
2022-10-29T13:35:42.852Z,7.28
2022-10-29T13:38:57.899Z,6.43
2022-10-29T13:41:53.484Z,7.28
2022-10-29T13:44:42.194Z,7.15
2022-10-29T13:47:32.916Z,6.63
2022-10-29T13:50:21.964Z,6.53
2022-10-29T13:53:15.092Z,6.30
2022-10-29T13:56:03.691Z,7.35
2022-10-29T13:58:53.976Z,6.57
2022-10-29T14:01:47.270Z,6.90
2022-10-29T14:04:40.608Z,7.03
2022-10-29T14:07:38.836Z,7.35
2022-10-29T14:10:32.228Z,6.47
2022-10-29T14:13:33.314Z,7.00
2022-10-29T14:16:29.217Z,7.30
2022-10-29T14:19:22.698Z,6.88
2022-10-29T14:22:35.287Z,7.32
2022-10-29T14:25:36.217Z,6.60
2022-10-29T14:28:27.310Z,6.97
2022-10-29T14:31:17.876Z,7.38
2022-10-29T14:34:07.206Z,7.43
2022-10-29T14:36:57.825Z,7.72
2022-10-29T14:45:37.012Z,8.95
2022-10-29T14:48:25.405Z,8.10
2022-10-29T14:51:20.517Z,8.80
2022-10-29T14:54:16.642Z,8.30
2022-10-29T14:57:12.750Z,7.35
2022-10-29T15:00:04.151Z,7.85
2022-10-29T15:02:54.383Z,7.45
2022-10-29T15:05:43.160Z,7.25
2022-10-29T15:08:34.285Z,7.97
2022-10-29T15:11:39.665Z,7.05
2022-10-29T15:14:39.753Z,6.97
2022-10-29T15:17:32.360Z,7.90
2022-10-29T15:20:23.905Z,7.22
2022-10-29T15:23:19.786Z,7.00
2022-10-29T15:26:12.386Z,7.45
2022-10-29T15:29:00.770Z,7.47
2022-10-29T15:31:53.531Z,7.53
2022-10-29T15:34:48.676Z,8.43
2022-10-29T15:37:46.702Z,7.95
2022-10-29T15:40:35.214Z,7.78
2022-10-29T15:43:31.327Z,8.52
2022-10-29T15:46:22.956Z,8.50
2022-10-29T15:49:17.496Z,7.70
2022-10-29T15:52:06.056Z,8.40
2022-10-29T15:54:54.431Z,8.10
2022-10-29T15:57:45.024Z,8.63
2022-10-29T16:00:34.015Z,7.90
2022-10-29T16:03:24.038Z,8.52
2022-10-29T16:06:16.370Z,9.90
2022-10-29T16:09:04.748Z,10.68
2022-10-29T16:11:53.201Z,9.90
2022-10-29T16:14:41.529Z,8.93
2022-10-29T16:17:30.485Z,7.00
2022-10-29T16:20:20.397Z,7.28
2022-10-29T16:23:11.972Z,7.53
2022-10-29T16:26:00.544Z,6.95
2022-10-29T16:28:48.882Z,7.50
2022-10-29T16:31:37.862Z,7.35
2022-10-29T16:34:26.268Z,6.63
2022-10-29T16:37:16.270Z,6.80
2022-10-29T16:40:07.162Z,7.35
2022-10-29T16:42:55.896Z,7.22
2022-10-29T16:45:44.597Z,7.88
2022-10-29T16:48:33.017Z,7.53
2022-10-29T16:51:21.354Z,7.20
2022-10-29T16:54:09.665Z,7.03
2022-10-29T16:56:59.327Z,7.80
2022-10-29T16:59:47.676Z,7.32
2022-10-29T17:02:36.109Z,8.07
2022-10-29T17:05:24.457Z,8.45
2022-10-29T17:08:13.451Z,8.18
2022-10-29T17:11:02.608Z,9.23
2022-10-29T17:13:52.299Z,8.43
2022-10-29T17:16:40.613Z,9.32
2022-10-29T17:19:29.050Z,10.10
2022-10-29T17:22:17.440Z,10.38
2022-10-29T17:25:06.352Z,12.27
2022-10-29T17:27:55.024Z,11.93
2022-10-29T17:30:44.997Z,12.48
2022-10-29T17:33:33.373Z,13.65
2022-10-29T17:36:21.671Z,12.07
2022-10-29T17:39:10.482Z,11.57
2022-10-29T17:41:58.969Z,11.35
2022-10-29T17:44:47.330Z,11.30
2022-10-29T17:47:37.157Z,12.05
2022-10-29T17:50:26.264Z,11.03
2022-10-29T17:53:14.608Z,10.50
2022-10-29T17:56:02.946Z,10.90
2022-10-29T17:58:51.661Z,10.18
2022-10-29T18:01:40.113Z,11.35
2022-10-29T18:04:30.021Z,12.02
2022-10-29T18:07:18.554Z,11.70
2022-10-29T18:10:07.939Z,12.73
2022-10-29T18:12:56.290Z,12.00
2022-10-29T18:15:45.104Z,12.52
2022-10-29T18:18:48.068Z,12.57
2022-10-29T18:21:45.989Z,14.48
2022-10-29T18:24:34.490Z,12.55
2022-10-29T18:27:22.982Z,13.63
2022-10-29T18:30:13.505Z,15.45
2022-10-29T18:33:02.195Z,14.20
2022-10-29T18:35:50.692Z,13.82
2022-10-29T18:38:41.229Z,13.48
2022-10-29T18:41:29.521Z,13.02
2022-10-29T18:44:21.242Z,12.90
2022-10-29T18:47:09.837Z,15.10
2022-10-29T18:49:58.154Z,15.50
2022-10-29T18:52:46.513Z,16.42
2022-10-29T18:55:36.455Z,16.80
2022-10-29T18:58:24.948Z,16.07
2022-10-29T19:01:15.312Z,16.52
2022-10-29T19:04:06.577Z,16.60
2022-10-29T19:06:55.583Z,14.43
2022-10-29T19:09:43.982Z,14.63
2022-10-29T19:12:33.912Z,15.63
2022-10-29T19:15:22.323Z,15.48
2022-10-29T19:18:10.748Z,15.48
2022-10-29T19:21:03.821Z,14.38
2022-10-29T19:23:56.122Z,13.43
2022-10-29T19:26:45.028Z,12.73
2022-10-29T19:29:34.805Z,12.52
2022-10-29T19:32:23.197Z,12.65
2022-10-29T19:35:11.647Z,12.63
2022-10-29T19:38:00.205Z,12.55
2022-10-29T19:40:48.820Z,13.13
2022-10-29T19:43:37.405Z,11.80
2022-10-29T19:46:27.165Z,11.98
2022-10-29T19:49:15.589Z,11.35
2022-10-29T19:52:04.082Z,13.05
2022-10-29T19:54:52.528Z,11.30
2022-10-29T19:57:41.037Z,11.05
2022-10-29T20:00:29.669Z,11.52
2022-10-29T20:03:20.817Z,11.00
2022-10-29T20:06:09.620Z,10.10
2022-10-29T20:08:57.960Z,10.95
2022-10-29T20:11:46.419Z,11.68
2022-10-29T20:14:35.622Z,11.20
2022-10-29T20:17:23.962Z,10.98
2022-10-29T20:20:17.185Z,11.75
2022-10-29T20:23:05.800Z,10.65
2022-10-29T20:25:54.180Z,11.27
2022-10-29T20:28:43.893Z,10.80
2022-10-29T20:31:38.535Z,10.75
2022-10-29T20:34:29.362Z,12.15
2022-10-29T20:37:19.561Z,12.48
2022-10-29T20:40:08.907Z,12.27
2022-10-29T20:42:57.360Z,11.55
2022-10-29T20:45:47.221Z,14.93
2022-10-29T20:48:37.090Z,12.93
2022-10-29T20:51:26.087Z,12.15
2022-10-29T20:54:15.944Z,13.43
2022-10-29T20:57:04.471Z,12.40
2022-10-29T20:59:53.524Z,12.88
2022-10-29T21:02:42.425Z,12.23
2022-10-29T21:05:31.146Z,12.75
2022-10-29T21:08:19.557Z,12.30
2022-10-29T21:11:16.873Z,13.57
2022-10-29T21:14:07.332Z,13.82
2022-10-29T21:17:05.248Z,12.07
2022-10-29T21:19:53.856Z,11.93
2022-10-29T21:22:42.414Z,12.65
2022-10-29T21:25:31.026Z,12.18
2022-10-29T21:28:20.755Z,12.43
2022-10-29T21:31:09.444Z,13.23
2022-10-29T21:33:57.847Z,13.65
2022-10-29T21:36:46.157Z,12.57
2022-10-29T21:39:34.688Z,13.70
2022-10-29T21:42:22.991Z,12.30
2022-10-29T21:45:13.084Z,13.10
2022-10-29T21:48:01.430Z,13.02
2022-10-29T21:50:49.766Z,12.40
2022-10-29T21:53:38.598Z,13.40
2022-10-29T21:56:26.911Z,12.57
2022-10-29T21:59:15.213Z,15.23
2022-10-29T22:02:05.071Z,13.75
2022-10-29T22:04:53.455Z,13.55
2022-10-29T22:07:41.811Z,13.68
2022-10-29T22:10:30.211Z,12.93
2022-10-29T22:13:18.519Z,14.32
2022-10-29T22:16:08.797Z,14.68
2022-10-29T22:18:58.509Z,14.38
2022-10-29T22:21:46.854Z,13.57
2022-10-29T22:24:35.216Z,14.32
2022-10-29T22:27:23.583Z,13.80
2022-10-29T22:30:13.078Z,14.68
2022-10-29T22:33:02.678Z,14.05
2022-10-29T22:35:52.431Z,14.55
2022-10-29T22:38:41.254Z,16.27
2022-10-29T22:41:30.645Z,13.45
2022-10-29T22:44:19.025Z,13.80
2022-10-29T22:47:07.332Z,13.88
2022-10-29T22:49:56.680Z,14.00
2022-10-29T22:52:46.571Z,14.65
2022-10-29T22:55:35.050Z,13.40
2022-10-29T22:58:23.672Z,12.85
2022-10-29T23:01:14.179Z,13.43
2022-10-29T23:04:03.031Z,13.43
2022-10-29T23:06:51.377Z,13.95
2022-10-29T23:09:42.599Z,13.15
2022-10-29T23:12:31.608Z,13.30
2022-10-29T23:15:20.118Z,13.70
2022-10-29T23:18:08.544Z,12.77
2022-10-29T23:21:01.331Z,12.98
2022-10-29T23:23:50.475Z,12.85
2022-10-29T23:26:40.269Z,13.15
2022-10-29T23:29:28.634Z,14.07
2022-10-29T23:32:17.019Z,12.88
2022-10-29T23:35:05.670Z,14.52
2022-10-29T23:37:55.278Z,13.40
2022-10-29T23:40:44.932Z,13.75
2022-10-29T23:43:34.767Z,12.98
2022-10-29T23:46:23.586Z,13.43
2022-10-29T23:49:12.111Z,12.85
2022-10-29T23:52:00.411Z,14.73
2022-10-29T23:54:48.725Z,12.25
2022-10-29T23:57:37.165Z,13.60
